createdAt,value
2019-02-27T00:00:15.926Z,36.03
2019-02-27T00:02:48.945Z,37.37
2019-02-27T00:05:19.112Z,36.83
2019-02-27T00:07:51.832Z,36.23
2019-02-27T00:10:21.310Z,37.50
2019-02-27T00:12:52.454Z,36.73
2019-02-27T00:15:22.737Z,33.63
2019-02-27T00:17:52.908Z,34.80
2019-02-27T00:20:23.050Z,32.47
2019-02-27T00:22:53.115Z,31.53
2019-02-27T00:25:23.193Z,32.67
2019-02-27T00:27:55.459Z,31.53
2019-02-27T00:30:27.101Z,33.40
2019-02-27T00:32:57.109Z,29.07
2019-02-27T00:35:27.623Z,32.00
2019-02-27T00:37:58.787Z,31.30
2019-02-27T00:40:29.120Z,28.33
2019-02-27T00:42:59.157Z,28.07
2019-02-27T00:45:29.103Z,31.60
2019-02-27T00:47:59.615Z,30.87
2019-02-27T00:50:29.799Z,30.20
2019-02-27T00:52:59.732Z,30.50
2019-02-27T00:55:39.385Z,30.87
2019-02-27T00:58:15.400Z,31.17
2019-02-27T01:00:45.533Z,30.10
2019-02-27T01:03:15.670Z,28.90
2019-02-27T01:05:45.848Z,30.87
2019-02-27T01:08:15.957Z,29.23
2019-02-27T01:10:46.066Z,36.17
2019-02-27T01:13:16.036Z,34.77
2019-02-27T01:15:46.077Z,37.20
2019-02-27T01:18:16.230Z,35.50
2019-02-27T01:20:50.995Z,35.20
2019-02-27T01:23:20.892Z,35.53
2019-02-27T01:25:56.158Z,35.93
2019-02-27T01:28:25.221Z,37.20
2019-02-27T01:30:55.309Z,33.73
2019-02-27T01:33:25.194Z,34.03
2019-02-27T01:35:55.215Z,40.57
2019-02-27T01:38:26.594Z,36.03
2019-02-27T01:40:56.667Z,33.53
2019-02-27T01:43:29.591Z,34.57
2019-02-27T01:45:59.546Z,33.50
2019-02-27T01:48:31.001Z,34.20
2019-02-27T01:51:01.143Z,38.33
2019-02-27T01:53:32.496Z,33.90
2019-02-27T01:56:06.421Z,37.13
2019-02-27T01:58:36.493Z,35.97
2019-02-27T02:01:06.695Z,35.20
2019-02-27T02:03:40.183Z,37.80
2019-02-27T02:06:10.475Z,39.10
2019-02-27T02:08:47.969Z,37.30
2019-02-27T02:11:15.281Z,38.47
2019-02-27T02:13:54.359Z,41.20
2019-02-27T02:16:52.665Z,41.00
2019-02-27T02:20:02.162Z,40.67
2019-02-27T02:22:55.767Z,42.83
2019-02-27T02:25:50.697Z,42.63
2019-02-27T02:29:05.236Z,39.70
2019-02-27T02:32:08.402Z,40.17
2019-02-27T02:35:14.634Z,42.50
2019-02-27T02:37:58.753Z,41.17
2019-02-27T02:40:46.388Z,42.40
2019-02-27T02:43:30.667Z,47.47
2019-02-27T02:46:45.453Z,45.53
2019-02-27T02:49:45.909Z,42.70
2019-02-27T02:52:45.231Z,43.73
2019-02-27T02:55:52.129Z,42.50
2019-02-27T02:58:48.354Z,45.33
2019-02-27T03:01:28.957Z,43.00
2019-02-27T03:04:40.590Z,46.20
2019-02-27T03:07:49.829Z,40.63
2019-02-27T03:10:31.340Z,44.03
2019-02-27T03:13:55.158Z,40.53
2019-02-27T03:17:07.265Z,40.20
2019-02-27T03:20:16.769Z,38.00
2019-02-27T03:23:18.401Z,41.13
2019-02-27T03:26:24.111Z,44.47
2019-02-27T03:29:37.276Z,41.03
2019-02-27T03:32:24.229Z,35.27
2019-02-27T03:35:40.340Z,37.63
2019-02-27T03:38:28.610Z,40.23
2019-02-27T03:41:28.040Z,41.80
2019-02-27T03:44:26.510Z,37.13
2019-02-27T03:47:27.844Z,38.80
2019-02-27T03:50:22.645Z,38.83
2019-02-27T03:53:36.526Z,34.03
2019-02-27T03:56:34.821Z,38.37
2019-02-27T03:59:52.089Z,38.40
2019-02-27T04:03:05.130Z,38.80
2019-02-27T04:05:52.955Z,39.03
2019-02-27T04:08:44.881Z,38.87
2019-02-27T04:11:13.282Z,39.77
2019-02-27T04:13:43.418Z,39.73
2019-02-27T04:16:13.485Z,38.70
2019-02-27T04:18:44.264Z,38.60
2019-02-27T04:21:14.768Z,38.37
2019-02-27T04:23:49.022Z,34.80
2019-02-27T04:26:19.344Z,32.33
2019-02-27T04:28:49.216Z,38.70
2019-02-27T04:31:20.886Z,40.10
2019-02-27T04:33:51.239Z,32.60
2019-02-27T04:36:21.366Z,40.33
2019-02-27T04:38:51.414Z,35.70
2019-02-27T04:41:21.586Z,36.67
2019-02-27T04:43:51.629Z,36.20
2019-02-27T04:46:22.440Z,37.83
2019-02-27T04:48:53.132Z,37.80
2019-02-27T04:51:23.417Z,35.57
2019-02-27T04:53:54.984Z,35.90
2019-02-27T04:56:27.066Z,36.90
2019-02-27T04:59:05.313Z,39.13
2019-02-27T05:01:37.461Z,33.53
2019-02-27T05:04:07.476Z,37.53
2019-02-27T05:06:38.700Z,37.40
2019-02-27T05:09:09.653Z,37.80
2019-02-27T05:11:41.422Z,37.60
2019-02-27T05:14:14.604Z,36.90
2019-02-27T05:16:47.312Z,34.33
2019-02-27T05:19:26.683Z,37.13
2019-02-27T05:21:57.408Z,38.63
2019-02-27T05:24:28.484Z,38.50
2019-02-27T05:27:08.449Z,37.67
2019-02-27T05:29:45.671Z,44.87
2019-02-27T05:32:18.567Z,35.90
2019-02-27T05:34:50.851Z,36.33
2019-02-27T05:37:24.043Z,41.30
2019-02-27T05:39:54.083Z,41.47
2019-02-27T05:42:27.007Z,43.17
2019-02-27T05:44:57.274Z,39.43
2019-02-27T05:47:33.086Z,39.13
2019-02-27T05:50:05.746Z,41.00
2019-02-27T05:52:39.484Z,40.70
2019-02-27T05:55:15.330Z,34.90
2019-02-27T05:57:45.774Z,41.43
2019-02-27T06:00:32.973Z,33.73
2019-02-27T06:02:54.276Z,39.47
2019-02-27T06:05:24.344Z,36.70
2019-02-27T06:08:02.902Z,37.63
2019-02-27T06:10:33.224Z,33.10
2019-02-27T06:13:03.558Z,34.60
2019-02-27T06:15:35.109Z,41.53
2019-02-27T06:18:05.499Z,39.03
2019-02-27T06:20:38.971Z,34.10
2019-02-27T06:23:10.648Z,32.97
2019-02-27T06:25:49.888Z,42.77
2019-02-27T06:28:20.885Z,36.40
2019-02-27T06:30:52.572Z,32.57
2019-02-27T06:33:22.863Z,43.97
2019-02-27T06:35:53.478Z,33.23
2019-02-27T06:38:25.986Z,34.80
2019-02-27T06:41:01.769Z,37.40
2019-02-27T06:43:38.474Z,41.03
2019-02-27T06:46:11.472Z,45.03
2019-02-27T06:48:43.597Z,35.30
2019-02-27T06:51:25.491Z,36.97
2019-02-27T06:54:00.699Z,34.53
2019-02-27T06:56:44.238Z,35.77
2019-02-27T06:59:25.228Z,33.40
2019-02-27T07:01:57.445Z,37.30
2019-02-27T07:04:36.451Z,36.43
2019-02-27T07:07:32.691Z,33.60
2019-02-27T07:10:07.541Z,35.20
2019-02-27T07:12:38.436Z,33.70
2019-02-27T07:16:20.455Z,31.60
2019-02-27T07:19:01.849Z,31.63
2019-02-27T07:21:38.399Z,32.70
2019-02-27T07:24:20.260Z,33.43
2019-02-27T07:26:51.721Z,32.77
2019-02-27T07:29:27.332Z,42.87
2019-02-27T07:32:01.168Z,37.30
2019-02-27T07:34:38.088Z,40.17
2019-02-27T07:40:07.948Z,36.63
2019-02-27T07:42:50.719Z,37.77
2019-02-27T07:45:27.521Z,47.80
2019-02-27T07:50:49.199Z,38.37
2019-02-27T07:53:20.099Z,40.53
2019-02-27T07:55:50.714Z,36.93
2019-02-27T07:58:21.326Z,40.13
2019-02-27T08:00:51.740Z,40.53
2019-02-27T08:03:22.187Z,43.67
2019-02-27T08:05:59.916Z,41.80
2019-02-27T08:08:29.810Z,37.23
2019-02-27T08:11:07.339Z,41.00
2019-02-27T08:13:39.262Z,39.63
2019-02-27T08:16:13.034Z,44.23
2019-02-27T08:18:55.999Z,49.27
2019-02-27T08:21:39.389Z,42.37
2019-02-27T08:24:09.712Z,46.77
2019-02-27T08:26:40.377Z,41.60
2019-02-27T08:29:10.971Z,42.73
2019-02-27T08:31:51.331Z,42.33
2019-02-27T08:34:37.575Z,44.90
2019-02-27T08:37:09.770Z,43.57
2019-02-27T08:39:40.145Z,57.30
2019-02-27T08:42:10.386Z,45.53
2019-02-27T08:44:47.209Z,47.50
2019-02-27T08:47:17.580Z,43.43
2019-02-27T08:49:47.794Z,41.93
2019-02-27T08:52:44.406Z,43.10
2019-02-27T08:55:19.870Z,43.73
2019-02-27T08:57:46.493Z,43.93
2019-02-27T09:00:24.693Z,42.70
2019-02-27T09:03:19.674Z,48.00
2019-02-27T09:05:42.131Z,45.50
2019-02-27T09:08:12.649Z,42.47
2019-02-27T09:10:44.763Z,41.93
2019-02-27T09:13:15.067Z,40.03
2019-02-27T09:15:55.423Z,40.37
2019-02-27T09:18:25.345Z,42.93
2019-02-27T09:20:55.636Z,38.90
2019-02-27T09:23:30.897Z,41.03
2019-02-27T09:26:02.717Z,43.10
2019-02-27T09:28:35.415Z,43.90
2019-02-27T09:31:07.089Z,42.97
2019-02-27T09:33:40.147Z,39.13
2019-02-27T09:36:11.334Z,41.33
2019-02-27T09:38:45.108Z,43.40
2019-02-27T09:42:19.162Z,38.70
2019-02-27T09:44:48.321Z,35.70
2019-02-27T09:47:23.079Z,37.67
2019-02-27T09:53:12.778Z,35.93
2019-02-27T09:55:42.854Z,35.03
2019-02-27T09:58:13.237Z,34.73
2019-02-27T10:00:45.505Z,34.57
2019-02-27T10:03:19.780Z,30.70
2019-02-27T10:05:48.291Z,32.73
2019-02-27T10:08:18.541Z,34.97
2019-02-27T10:10:49.436Z,32.77
2019-02-27T10:13:20.271Z,29.20
2019-02-27T10:15:53.471Z,30.80
2019-02-27T10:18:23.570Z,33.80
2019-02-27T10:20:54.214Z,26.50
2019-02-27T10:23:32.894Z,31.70
2019-02-27T10:26:06.032Z,33.90
2019-02-27T10:28:39.608Z,33.33
2019-02-27T10:31:08.026Z,27.07
2019-02-27T10:33:44.134Z,34.43
2019-02-27T10:36:17.936Z,29.30
2019-02-27T10:38:48.213Z,25.30
2019-02-27T10:41:20.455Z,32.10
2019-02-27T10:43:56.652Z,26.50
2019-02-27T10:46:30.411Z,25.07
2019-02-27T10:49:00.910Z,26.43
2019-02-27T10:51:32.343Z,25.53
2019-02-27T10:54:05.428Z,25.23
2019-02-27T10:56:37.736Z,23.90
2019-02-27T10:59:10.695Z,28.90
2019-02-27T11:01:44.451Z,25.50
2019-02-27T11:04:15.345Z,25.60
2019-02-27T11:06:46.365Z,25.70
2019-02-27T11:09:28.235Z,26.00
2019-02-27T11:12:00.061Z,24.00
2019-02-27T11:14:32.049Z,22.80
2019-02-27T11:17:03.812Z,24.97
2019-02-27T11:19:35.075Z,24.47
2019-02-27T11:22:24.171Z,30.40
2019-02-27T11:24:57.323Z,26.07
2019-02-27T11:27:30.193Z,28.07
2019-02-27T11:30:03.052Z,24.97
2019-02-27T11:32:33.835Z,25.17
2019-02-27T11:35:04.628Z,24.93
2019-02-27T11:37:41.203Z,24.27
2019-02-27T11:40:15.634Z,24.47
2019-02-27T11:42:46.196Z,24.27
2019-02-27T11:45:21.157Z,25.37
2019-02-27T11:47:56.093Z,22.63
2019-02-27T11:50:23.306Z,24.27
2019-02-27T11:53:01.774Z,24.13
2019-02-27T11:55:30.242Z,25.93
2019-02-27T11:58:04.567Z,24.80
2019-02-27T12:00:33.363Z,26.40
2019-02-27T12:03:08.555Z,22.93
2019-02-27T12:05:36.477Z,23.00
2019-02-27T12:08:11.320Z,21.20
2019-02-27T12:10:42.084Z,21.37
2019-02-27T12:13:14.188Z,24.23
2019-02-27T12:15:45.267Z,24.53
2019-02-27T12:18:17.415Z,20.37
2019-02-27T12:20:53.230Z,19.33
2019-02-27T12:23:20.492Z,20.30
2019-02-27T12:25:50.556Z,19.80
2019-02-27T12:28:22.955Z,19.70
2019-02-27T12:30:52.830Z,24.80
2019-02-27T12:33:23.386Z,20.60
2019-02-27T12:35:54.413Z,20.43
2019-02-27T12:38:32.793Z,20.63
2019-02-27T12:40:59.094Z,23.23
2019-02-27T12:43:29.416Z,22.53
2019-02-27T12:46:01.034Z,20.27
2019-02-27T12:48:31.773Z,20.60
2019-02-27T12:51:03.786Z,19.17
2019-02-27T12:53:34.326Z,20.53
2019-02-27T12:56:07.835Z,19.47
2019-02-27T12:58:38.410Z,18.80
2019-02-27T13:01:09.114Z,19.30
2019-02-27T13:03:42.205Z,22.20
2019-02-27T13:06:11.888Z,21.00
2019-02-27T13:08:42.498Z,18.97
2019-02-27T13:11:12.787Z,17.53
2019-02-27T13:13:45.696Z,17.20
2019-02-27T13:16:18.263Z,16.33
2019-02-27T13:18:49.695Z,19.63
2019-02-27T13:21:22.229Z,15.93
2019-02-27T13:23:55.871Z,15.80
2019-02-27T13:26:27.312Z,17.70
2019-02-27T13:28:58.121Z,16.63
2019-02-27T13:31:32.932Z,14.90
2019-02-27T13:34:03.098Z,15.03
2019-02-27T13:36:36.022Z,16.50
2019-02-27T13:39:12.661Z,16.17
2019-02-27T13:41:46.691Z,15.30
2019-02-27T13:44:17.977Z,15.10
2019-02-27T13:46:49.671Z,14.97
2019-02-27T13:49:20.304Z,14.90
2019-02-27T13:51:53.691Z,15.30
2019-02-27T13:54:23.768Z,13.80
2019-02-27T13:56:55.529Z,14.97
2019-02-27T13:59:25.798Z,14.07
2019-02-27T14:01:55.926Z,16.73
2019-02-27T14:04:26.249Z,15.03
2019-02-27T14:06:56.855Z,14.57
2019-02-27T14:09:27.031Z,14.80
2019-02-27T14:11:58.687Z,14.23
2019-02-27T14:14:34.391Z,14.67
2019-02-27T14:17:07.703Z,16.90
2019-02-27T14:19:36.825Z,16.50
2019-02-27T14:22:08.111Z,15.17
2019-02-27T14:24:38.421Z,15.67
2019-02-27T14:27:11.921Z,15.07
2019-02-27T14:30:03.479Z,14.40
2019-02-27T14:32:55.303Z,16.00
2019-02-27T14:35:44.125Z,13.17
2019-02-27T14:38:33.349Z,16.10
2019-02-27T14:41:21.553Z,15.13
2019-02-27T14:44:10.106Z,15.80
2019-02-27T14:46:58.225Z,14.90
2019-02-27T14:49:46.302Z,14.73
2019-02-27T14:52:40.048Z,16.20
2019-02-27T14:55:28.734Z,14.80
2019-02-27T14:58:18.678Z,14.80
2019-02-27T15:01:08.424Z,15.57
2019-02-27T15:03:56.972Z,17.77
2019-02-27T15:06:45.018Z,15.73
2019-02-27T15:09:36.546Z,16.40
2019-02-27T15:12:25.344Z,17.27
2019-02-27T15:15:17.330Z,18.67
2019-02-27T15:18:05.914Z,18.43
2019-02-27T15:20:39.886Z,15.30
2019-02-27T15:23:28.337Z,18.40
2019-02-27T15:25:58.557Z,18.80
2019-02-27T15:28:33.458Z,17.23
2019-02-27T15:31:21.451Z,15.60
2019-02-27T15:33:53.960Z,15.87
2019-02-27T15:36:29.309Z,15.23
2019-02-27T15:38:56.722Z,16.07
2019-02-27T15:41:28.427Z,16.17
2019-02-27T15:44:01.585Z,26.27
2019-02-27T15:46:35.839Z,13.87
2019-02-27T15:49:05.865Z,22.17
2019-02-27T15:51:36.608Z,16.37
2019-02-27T15:54:07.832Z,15.63
2019-02-27T15:56:41.515Z,15.57
2019-02-27T15:59:11.953Z,15.70
2019-02-27T16:01:45.727Z,21.63
2019-02-27T16:04:17.579Z,16.40
2019-02-27T16:06:47.621Z,15.07
2019-02-27T16:09:20.911Z,16.57
2019-02-27T16:11:52.406Z,17.43
2019-02-27T16:14:22.881Z,16.53
2019-02-27T16:16:54.095Z,16.53
2019-02-27T16:19:25.104Z,14.70
2019-02-27T16:21:57.962Z,15.00
2019-02-27T16:24:32.659Z,15.37
2019-02-27T16:30:45.028Z,23.40
2019-02-27T16:33:15.786Z,17.23
2019-02-27T16:35:46.949Z,26.13
2019-02-27T16:38:24.647Z,22.30
2019-02-27T16:40:57.006Z,16.90
2019-02-27T16:43:35.581Z,20.83
2019-02-27T16:46:08.571Z,23.50
2019-02-27T16:48:45.341Z,16.67
2019-02-27T16:51:48.862Z,18.40
2019-02-27T16:54:20.851Z,15.70
2019-02-27T16:56:52.998Z,16.83
2019-02-27T16:59:28.748Z,18.80
2019-02-27T17:02:03.716Z,21.10
2019-02-27T17:07:26.604Z,17.10
2019-02-27T17:09:59.780Z,16.93
2019-02-27T17:12:32.089Z,21.23
2019-02-27T17:15:02.371Z,16.30
2019-02-27T17:17:36.755Z,18.87
2019-02-27T17:20:12.513Z,16.10
2019-02-27T17:23:04.483Z,20.03
2019-02-27T17:26:03.446Z,20.40
2019-02-27T17:31:21.596Z,20.80
2019-02-27T17:34:13.409Z,17.00
2019-02-27T17:36:37.817Z,16.10
2019-02-27T17:39:12.922Z,18.40
2019-02-27T17:42:00.193Z,18.70
2019-02-27T17:44:44.260Z,15.90
2019-02-27T17:47:18.405Z,21.03
2019-02-27T17:49:57.472Z,17.37
2019-02-27T17:52:27.991Z,19.27
2019-02-27T17:57:59.246Z,15.03
2019-02-27T18:03:28.949Z,16.20
2019-02-27T18:12:06.287Z,16.50
2019-02-27T18:14:30.533Z,15.33
2019-02-27T18:17:34.492Z,12.87
2019-02-27T18:22:45.998Z,13.77
2019-02-27T18:25:25.328Z,14.33
2019-02-27T18:28:12.049Z,13.80
2019-02-27T18:33:23.827Z,16.53
2019-02-27T18:36:01.509Z,15.00
2019-02-27T18:38:44.485Z,15.20
2019-02-27T18:41:16.833Z,13.90
2019-02-27T18:44:20.344Z,14.73
2019-02-27T18:46:45.485Z,15.53
2019-02-27T18:49:28.663Z,25.00
2019-02-27T18:54:43.832Z,14.73
2019-02-27T18:57:23.110Z,17.90
2019-02-27T18:59:51.941Z,14.00
2019-02-27T19:02:22.844Z,14.70
2019-02-27T19:05:00.789Z,15.27
2019-02-27T19:07:53.686Z,16.50
2019-02-27T19:10:23.706Z,15.67
2019-02-27T19:12:54.091Z,14.47
2019-02-27T19:15:26.203Z,14.33
2019-02-27T19:17:57.164Z,19.00
2019-02-27T19:20:32.835Z,14.90
2019-02-27T19:23:03.120Z,15.80
2019-02-27T19:25:39.001Z,14.53
2019-02-27T19:28:09.543Z,16.03
2019-02-27T19:30:44.369Z,16.50
2019-02-27T19:33:16.580Z,17.57
2019-02-27T19:35:55.847Z,15.30
2019-02-27T19:38:26.051Z,17.90
2019-02-27T19:41:01.261Z,16.43
2019-02-27T19:43:34.468Z,17.23
2019-02-27T19:46:09.865Z,16.87
2019-02-27T19:48:39.144Z,17.70
2019-02-27T19:51:09.730Z,17.70
2019-02-27T19:53:52.135Z,18.50
2019-02-27T19:56:28.040Z,17.87
2019-02-27T19:59:08.361Z,17.67
2019-02-27T20:01:49.045Z,17.87
2019-02-27T20:04:18.085Z,17.43
2019-02-27T20:06:49.089Z,17.93
2019-02-27T20:09:25.706Z,16.97
2019-02-27T20:11:56.060Z,19.23
2019-02-27T20:14:33.291Z,18.10
2019-02-27T20:17:12.799Z,16.10
2019-02-27T20:19:43.128Z,17.50
2019-02-27T20:22:15.422Z,17.60
2019-02-27T20:24:48.391Z,17.40
2019-02-27T20:27:19.175Z,17.57
2019-02-27T20:29:49.940Z,17.50
2019-02-27T20:32:20.430Z,20.07
2019-02-27T20:34:51.252Z,17.03
2019-02-27T20:37:21.976Z,17.63
2019-02-27T20:39:58.360Z,17.80
2019-02-27T20:42:24.940Z,18.70
2019-02-27T20:44:55.250Z,20.30
2019-02-27T20:47:27.349Z,17.10
2019-02-27T20:50:02.979Z,18.03
2019-02-27T20:52:54.427Z,20.37
2019-02-27T20:55:30.919Z,18.90
2019-02-27T20:58:05.081Z,17.37
2019-02-27T21:00:36.517Z,20.10
2019-02-27T21:03:26.791Z,17.73
2019-02-27T21:05:54.567Z,18.63
2019-02-27T21:08:28.761Z,24.33
2019-02-27T21:11:00.822Z,17.17
2019-02-27T21:13:31.335Z,21.47
2019-02-27T21:16:03.965Z,17.97
2019-02-27T21:18:35.363Z,18.47
2019-02-27T21:21:07.235Z,17.47
2019-02-27T21:23:37.556Z,19.73
2019-02-27T21:26:09.703Z,16.87
2019-02-27T21:28:40.844Z,19.60
2019-02-27T21:31:26.636Z,21.90
2019-02-27T21:33:55.989Z,19.87
2019-02-27T21:36:26.592Z,22.17
2019-02-27T21:38:57.357Z,19.33
2019-02-27T21:41:30.547Z,18.37
2019-02-27T21:44:02.722Z,17.83
2019-02-27T21:46:36.603Z,17.93
2019-02-27T21:49:38.165Z,20.13
2019-02-27T21:52:13.348Z,19.23
2019-02-27T21:57:44.830Z,18.73
2019-02-27T22:00:25.144Z,22.50
2019-02-27T22:03:05.740Z,17.70
2019-02-27T22:05:44.916Z,18.83
2019-02-27T22:08:15.553Z,20.40
2019-02-27T22:10:53.308Z,19.27
2019-02-27T22:13:29.567Z,19.60
2019-02-27T22:16:01.821Z,18.67
2019-02-27T22:18:38.511Z,19.27
2019-02-27T22:21:11.187Z,19.27
2019-02-27T22:23:46.023Z,18.77
2019-02-27T22:26:18.441Z,19.77
2019-02-27T22:28:54.434Z,21.60
2019-02-27T22:31:30.458Z,17.77
2019-02-27T22:33:57.845Z,19.57
2019-02-27T22:36:28.366Z,19.47
2019-02-27T22:39:05.222Z,17.60
2019-02-27T22:41:41.826Z,21.20
2019-02-27T22:44:15.426Z,19.57
2019-02-27T22:46:47.816Z,19.10
2019-02-27T22:49:51.019Z,18.90
2019-02-27T22:52:21.693Z,19.43
2019-02-27T22:54:52.163Z,21.40
2019-02-27T22:57:42.688Z,20.90
2019-02-27T23:01:18.044Z,22.50
2019-02-27T23:03:57.791Z,19.90
2019-02-27T23:06:28.800Z,18.47
2019-02-27T23:09:00.692Z,21.47
2019-02-27T23:11:34.115Z,19.20
2019-02-27T23:14:09.858Z,20.33
2019-02-27T23:16:40.523Z,21.20
2019-02-27T23:19:12.042Z,19.63
2019-02-27T23:21:44.072Z,21.50
2019-02-27T23:24:16.002Z,21.43
2019-02-27T23:26:54.364Z,21.97
2019-02-27T23:29:22.719Z,19.37
2019-02-27T23:31:54.836Z,21.83
2019-02-27T23:34:25.034Z,22.07
2019-02-27T23:37:00.204Z,24.20
2019-02-27T23:39:30.354Z,24.60
2019-02-27T23:42:00.720Z,21.70
2019-02-27T23:44:31.363Z,19.70
2019-02-27T23:47:01.466Z,21.30
2019-02-27T23:49:33.348Z,20.67
2019-02-27T23:52:16.088Z,22.80
2019-02-27T23:54:46.664Z,23.57
2019-02-27T23:57:24.502Z,26.93
2019-02-27T23:59:55.036Z,22.13
